sensor_id;sensor_type;location;lat;lon;timestamp;pressure;altitude;pressure_sealevel;temperature;humidity
20860;BME280;10590;48.154;11.514;2024-03-23T00:51:48;95115.63;;;11.15;57.97
20860;BME280;10590;48.154;11.514;2024-03-23T00:57:10;95109.22;;;11.28;57.13
20860;BME280;10590;48.154;11.514;2024-03-23T01:02:32;95102.22;;;11.36;56.61
20860;BME280;10590;48.154;11.514;2024-03-23T01:07:54;95101.88;;;11.49;56.31
20860;BME280;10590;48.154;11.514;2024-03-23T01:13:16;95078.97;;;11.48;56.23
20860;BME280;10590;48.154;11.514;2024-03-23T01:18:41;95084.19;;;11.45;56.56
20860;BME280;10590;48.154;11.514;2024-03-23T01:24:04;95076.16;;;11.33;56.25
20860;BME280;10590;48.154;11.514;2024-03-23T01:29:25;95069.16;;;11.40;56.70
20860;BME280;10590;48.154;11.514;2024-03-23T01:34:47;95065.88;;;11.23;56.94
20860;BME280;10590;48.154;11.514;2024-03-23T01:40:12;95050.47;;;11.40;56.18
20860;BME280;10590;48.154;11.514;2024-03-23T01:45:34;95055.22;;;11.23;56.93
20860;BME280;10590;48.154;11.514;2024-03-23T01:50:56;95056.19;;;11.18;57.57
20860;BME280;10590;48.154;11.514;2024-03-23T01:56:19;95057.31;;;11.05;58.07
20860;BME280;10590;48.154;11.514;2024-03-23T02:01:40;95045.59;;;10.97;58.72
20860;BME280;10590;48.154;11.514;2024-03-23T02:07:02;95033.34;;;10.84;59.03
20860;BME280;10590;48.154;11.514;2024-03-23T02:12:27;95029.66;;;10.76;59.76
20860;BME280;10590;48.154;11.514;2024-03-23T02:17:48;95025.44;;;10.75;59.64
20860;BME280;10590;48.154;11.514;2024-03-23T02:23:14;95016.50;;;10.59;60.53
20860;BME280;10590;48.154;11.514;2024-03-23T02:28:36;95013.53;;;10.40;61.11
20860;BME280;10590;48.154;11.514;2024-03-23T02:33:57;95012.91;;;10.43;61.02
20860;BME280;10590;48.154;11.514;2024-03-23T02:39:20;94992.03;;;10.03;63.05
20860;BME280;10590;48.154;11.514;2024-03-23T02:44:42;94986.00;;;9.94;63.71
20860;BME280;10590;48.154;11.514;2024-03-23T02:50:04;94981.63;;;9.69;64.76
20860;BME280;10590;48.154;11.514;2024-03-23T02:55:27;94969.41;;;9.68;65.51
20860;BME280;10590;48.154;11.514;2024-03-23T03:00:49;94975.34;;;9.73;65.45
20860;BME280;10590;48.154;11.514;2024-03-23T03:06:11;94984.69;;;9.58;66.55
20860;BME280;10590;48.154;11.514;2024-03-23T03:11:34;94975.72;;;9.63;66.74
20860;BME280;10590;48.154;11.514;2024-03-23T03:16:56;94969.63;;;9.63;66.65
20860;BME280;10590;48.154;11.514;2024-03-23T03:22:17;94964.03;;;9.55;67.27
20860;BME280;10590;48.154;11.514;2024-03-23T03:27:40;94956.97;;;9.51;67.54
20860;BME280;10590;48.154;11.514;2024-03-23T03:33:02;94946.66;;;9.49;67.75
20860;BME280;10590;48.154;11.514;2024-03-23T03:38:23;94949.06;;;9.42;67.80
20860;BME280;10590;48.154;11.514;2024-03-23T03:43:46;94924.88;;;9.47;67.92
20860;BME280;10590;48.154;11.514;2024-03-23T03:49:08;94934.38;;;9.36;68.79
20860;BME280;10590;48.154;11.514;2024-03-23T03:54:30;94922.72;;;9.20;68.97
20860;BME280;10590;48.154;11.514;2024-03-23T03:59:53;94913.25;;;9.10;70.39
20860;BME280;10590;48.154;11.514;2024-03-23T04:05:15;94899.66;;;9.03;69.76
20860;BME280;10590;48.154;11.514;2024-03-23T04:10:37;94903.06;;;9.12;69.72
20860;BME280;10590;48.154;11.514;2024-03-23T04:16:00;94892.59;;;9.07;69.95
20860;BME280;10590;48.154;11.514;2024-03-23T04:21:22;94877.03;;;9.18;69.41
20860;BME280;10590;48.154;11.514;2024-03-23T04:26:44;94873.06;;;9.24;69.46
20860;BME280;10590;48.154;11.514;2024-03-23T04:32:07;94857.81;;;9.12;69.34
20860;BME280;10590;48.154;11.514;2024-03-23T04:37:29;94849.31;;;9.19;68.99
20860;BME280;10590;48.154;11.514;2024-03-23T04:42:51;94849.75;;;9.21;68.96
20860;BME280;10590;48.154;11.514;2024-03-23T04:48:14;94816.25;;;8.99;69.33
20860;BME280;10590;48.154;11.514;2024-03-23T04:53:36;94842.44;;;9.18;69.33
20860;BME280;10590;48.154;11.514;2024-03-23T04:58:57;94810.88;;;9.08;69.45
20860;BME280;10590;48.154;11.514;2024-03-23T05:04:23;94791.97;;;9.21;68.13
20860;BME280;10590;48.154;11.514;2024-03-23T05:09:45;94802.81;;;9.37;67.45
20860;BME280;10590;48.154;11.514;2024-03-23T05:15:07;94799.28;;;9.45;67.10
20860;BME280;10590;48.154;11.514;2024-03-23T05:20:30;94784.06;;;9.67;65.27
20860;BME280;10590;48.154;11.514;2024-03-23T05:25:52;94790.09;;;9.88;64.23
20860;BME280;10590;48.154;11.514;2024-03-23T05:31:22;94794.94;;;10.31;61.96
20860;BME280;10590;48.154;11.514;2024-03-23T05:36:45;94775.97;;;10.45;60.71
20860;BME280;10590;48.154;11.514;2024-03-23T05:42:07;94762.47;;;10.78;58.61
20860;BME280;10590;48.154;11.514;2024-03-23T05:47:29;94782.09;;;11.10;58.25
20860;BME280;10590;48.154;11.514;2024-03-23T05:52:52;94761.25;;;11.28;57.48
20860;BME280;10590;48.154;11.514;2024-03-23T05:58:15;94778.94;;;11.20;57.99
20860;BME280;10590;48.154;11.514;2024-03-23T06:03:37;94734.06;;;11.26;57.30
20860;BME280;10590;48.154;11.514;2024-03-23T06:09:00;94733.97;;;12.09;54.77
20860;BME280;10590;48.154;11.514;2024-03-23T06:14:22;94736.50;;;12.88;53.13
20860;BME280;10590;48.154;11.514;2024-03-23T06:19:43;94720.13;;;13.90;50.30
20860;BME280;10590;48.154;11.514;2024-03-23T06:25:07;94713.63;;;12.91;52.53
20860;BME280;10590;48.154;11.514;2024-03-23T06:30:29;94700.94;;;14.37;48.60
20860;BME280;10590;48.154;11.514;2024-03-23T06:35:52;94680.13;;;15.87;44.86
20860;BME280;10590;48.154;11.514;2024-03-23T06:41:15;94662.78;;;15.81;44.65
20860;BME280;10590;48.154;11.514;2024-03-23T06:46:37;94655.78;;;15.36;45.09
20860;BME280;10590;48.154;11.514;2024-03-23T06:51:58;94653.91;;;15.03;46.58
20860;BME280;10590;48.154;11.514;2024-03-23T06:57:22;94649.94;;;16.08;44.04
20860;BME280;10590;48.154;11.514;2024-03-23T07:02:44;94650.94;;;16.44;43.87
20860;BME280;10590;48.154;11.514;2024-03-23T07:08:06;94647.63;;;14.92;47.87
20860;BME280;10590;48.154;11.514;2024-03-23T07:13:29;94667.09;;;14.55;49.56
20860;BME280;10590;48.154;11.514;2024-03-23T07:18:54;94647.38;;;14.18;50.08
20860;BME280;10590;48.154;11.514;2024-03-23T07:24:17;94650.09;;;13.95;50.96
20860;BME280;10590;48.154;11.514;2024-03-23T07:29:40;94669.22;;;13.93;52.14
20860;BME280;10590;48.154;11.514;2024-03-23T07:35:02;94692.59;;;13.93;52.32
20860;BME280;10590;48.154;11.514;2024-03-23T07:40:24;94744.69;;;12.95;60.18
20860;BME280;10590;48.154;11.514;2024-03-23T07:45:52;94792.06;;;11.81;71.42
20860;BME280;10590;48.154;11.514;2024-03-23T07:51:16;94762.13;;;10.92;74.88
20860;BME280;10590;48.154;11.514;2024-03-23T07:56:38;94792.84;;;10.73;79.06
20860;BME280;10590;48.154;11.514;2024-03-23T08:02:01;94781.03;;;10.13;83.23
20860;BME280;10590;48.154;11.514;2024-03-23T08:07:22;94820.34;;;10.04;86.74
20860;BME280;10590;48.154;11.514;2024-03-23T08:12:46;94827.16;;;9.81;90.07
20860;BME280;10590;48.154;11.514;2024-03-23T08:18:12;94823.91;;;9.42;93.22
20860;BME280;10590;48.154;11.514;2024-03-23T08:23:36;94843.78;;;9.45;95.44
20860;BME280;10590;48.154;11.514;2024-03-23T08:28:59;94929.31;;;9.43;98.15
20860;BME280;10590;48.154;11.514;2024-03-23T08:34:25;94926.28;;;8.74;96.30
20860;BME280;10590;48.154;11.514;2024-03-23T08:39:47;94934.50;;;8.43;96.66
20860;BME280;10590;48.154;11.514;2024-03-23T08:45:23;94942.50;;;8.34;97.44
20860;BME280;10590;48.154;11.514;2024-03-23T08:51:03;94928.59;;;8.11;98.01
20860;BME280;10590;48.154;11.514;2024-03-23T08:56:25;94925.31;;;8.14;99.46
20860;BME280;10590;48.154;11.514;2024-03-23T09:01:47;94955.03;;;7.99;98.99
20860;BME280;10590;48.154;11.514;2024-03-23T09:07:19;94995.50;;;8.13;100.00
20860;BME280;10590;48.154;11.514;2024-03-23T09:12:41;94973.16;;;7.97;100.00
20860;BME280;10590;48.154;11.514;2024-03-23T09:18:06;94972.22;;;8.19;100.00
20860;BME280;10590;48.154;11.514;2024-03-23T09:23:35;94969.25;;;8.03;100.00
20860;BME280;10590;48.154;11.514;2024-03-23T09:28:59;95009.56;;;8.22;100.00
20860;BME280;10590;48.154;11.514;2024-03-23T09:34:31;94973.78;;;8.03;100.00
20860;BME280;10590;48.154;11.514;2024-03-23T09:40:01;94971.75;;;7.74;99.64
20860;BME280;10590;48.154;11.514;2024-03-23T09:45:27;94978.63;;;7.57;94.73
20860;BME280;10590;48.154;11.514;2024-03-23T09:50:54;95038.34;;;7.86;94.35
20860;BME280;10590;48.154;11.514;2024-03-23T09:56:23;95024.97;;;7.51;96.50
20860;BME280;10590;48.154;11.514;2024-03-23T10:01:50;95071.00;;;7.38;95.52
20860;BME280;10590;48.154;11.514;2024-03-23T10:07:19;95040.38;;;6.92;91.77
20860;BME280;10590;48.154;11.514;2024-03-23T10:13:00;95041.84;;;6.98;91.92
20860;BME280;10590;48.154;11.514;2024-03-23T10:18:24;95021.47;;;6.85;93.55
20860;BME280;10590;48.154;11.514;2024-03-23T10:24:08;95043.78;;;7.15;95.07
20860;BME280;10590;48.154;11.514;2024-03-23T10:29:50;95057.66;;;7.12;95.78
20860;BME280;10590;48.154;11.514;2024-03-23T10:35:18;95026.34;;;6.92;95.12
20860;BME280;10590;48.154;11.514;2024-03-23T10:40:57;95061.72;;;7.10;96.07
20860;BME280;10590;48.154;11.514;2024-03-23T10:46:25;95080.94;;;6.93;92.00
20860;BME280;10590;48.154;11.514;2024-03-23T10:51:47;95101.53;;;6.65;88.96
20860;BME280;10590;48.154;11.514;2024-03-23T10:58:42;95116.34;;;6.88;87.49
20860;BME280;10590;48.154;11.514;2024-03-23T11:03:46;95116.13;;;6.76;86.36
20860;BME280;10590;48.154;11.514;2024-03-23T11:09:40;95137.94;;;6.95;86.38
20860;BME280;10590;48.154;11.514;2024-03-23T11:15:17;95158.91;;;7.06;86.41
20860;BME280;10590;48.154;11.514;2024-03-23T11:20:40;95180.41;;;7.26;87.31
20860;BME280;10590;48.154;11.514;2024-03-23T11:26:07;95124.75;;;7.13;85.65
20860;BME280;10590;48.154;11.514;2024-03-23T11:31:31;95138.94;;;7.39;86.00
20860;BME280;10590;48.154;11.514;2024-03-23T11:37:04;95119.81;;;7.20;87.35
20860;BME280;10590;48.154;11.514;2024-03-23T11:48:05;95149.59;;;7.96;83.88
20860;BME280;10590;48.154;11.514;2024-03-23T11:53:28;95112.91;;;8.24;83.69
20860;BME280;10590;48.154;11.514;2024-03-23T11:58:50;95117.13;;;8.25;81.17
20860;BME280;10590;48.154;11.514;2024-03-23T12:04:25;95132.44;;;7.54;80.01
20860;BME280;10590;48.154;11.514;2024-03-23T12:10:14;95142.06;;;7.41;76.16
20860;BME280;10590;48.154;11.514;2024-03-23T12:15:44;95107.75;;;7.14;73.12
20860;BME280;10590;48.154;11.514;2024-03-23T12:21:06;95108.06;;;7.52;68.83
20860;BME280;10590;48.154;11.514;2024-03-23T12:26:33;95146.47;;;8.03;66.02
20860;BME280;10590;48.154;11.514;2024-03-23T12:31:55;95106.78;;;7.97;64.69
20860;BME280;10590;48.154;11.514;2024-03-23T12:37:19;95097.88;;;8.02;62.51
20860;BME280;10590;48.154;11.514;2024-03-23T12:42:42;95119.63;;;8.21;63.88
20860;BME280;10590;48.154;11.514;2024-03-23T12:48:04;95117.75;;;8.30;64.28
20860;BME280;10590;48.154;11.514;2024-03-23T12:53:26;95124.03;;;8.35;64.39
20860;BME280;10590;48.154;11.514;2024-03-23T12:58:49;95121.03;;;8.27;64.48
20860;BME280;10590;48.154;11.514;2024-03-23T13:04:14;95120.28;;;8.53;65.18
20860;BME280;10590;48.154;11.514;2024-03-23T13:09:36;95125.59;;;8.53;63.67
20860;BME280;10590;48.154;11.514;2024-03-23T13:15:00;95112.31;;;8.44;62.10
20860;BME280;10590;48.154;11.514;2024-03-23T13:20:22;95106.03;;;8.57;60.38
20860;BME280;10590;48.154;11.514;2024-03-23T13:25:49;95073.34;;;8.31;59.74
20860;BME280;10590;48.154;11.514;2024-03-23T13:31:14;95069.75;;;8.10;58.98
20860;BME280;10590;48.154;11.514;2024-03-23T13:36:36;95061.16;;;8.04;58.92
20860;BME280;10590;48.154;11.514;2024-03-23T13:41:58;95090.25;;;8.52;59.88
20860;BME280;10590;48.154;11.514;2024-03-23T13:47:25;95083.81;;;8.19;60.92
20860;BME280;10590;48.154;11.514;2024-03-23T13:52:48;95118.59;;;6.72;69.11
20860;BME280;10590;48.154;11.514;2024-03-23T13:58:13;95137.16;;;5.87;78.18
20860;BME280;10590;48.154;11.514;2024-03-23T14:03:44;95137.28;;;5.27;84.74
20860;BME280;10590;48.154;11.514;2024-03-23T14:09:20;95145.13;;;5.59;86.02
20860;BME280;10590;48.154;11.514;2024-03-23T14:27:40;95118.13;;;6.12;82.23
20860;BME280;10590;48.154;11.514;2024-03-23T14:33:03;95154.28;;;6.30;77.69
20860;BME280;10590;48.154;11.514;2024-03-23T14:38:33;95147.81;;;6.36;70.94
20860;BME280;10590;48.154;11.514;2024-03-23T14:43:56;95150.53;;;6.09;68.59
20860;BME280;10590;48.154;11.514;2024-03-23T14:49:18;95154.16;;;6.13;64.32
20860;BME280;10590;48.154;11.514;2024-03-23T14:54:41;95141.19;;;5.98;64.59
20860;BME280;10590;48.154;11.514;2024-03-23T15:00:06;95186.50;;;6.24;64.23
20860;BME280;10590;48.154;11.514;2024-03-23T15:05:28;95215.38;;;6.12;67.39
20860;BME280;10590;48.154;11.514;2024-03-23T15:10:50;95210.97;;;5.33;73.11
20860;BME280;10590;48.154;11.514;2024-03-23T15:16:17;95187.59;;;5.08;76.92
20860;BME280;10590;48.154;11.514;2024-03-23T15:21:43;95171.97;;;4.93;79.94
20860;BME280;10590;48.154;11.514;2024-03-23T15:27:05;95132.94;;;5.03;79.96
20860;BME280;10590;48.154;11.514;2024-03-23T15:32:30;95152.38;;;5.26;80.17
20860;BME280;10590;48.154;11.514;2024-03-23T15:37:52;95131.41;;;5.57;80.15
20860;BME280;10590;48.154;11.514;2024-03-23T15:43:14;95126.31;;;5.61;79.93
20860;BME280;10590;48.154;11.514;2024-03-23T15:48:37;95143.94;;;5.93;80.25
20860;BME280;10590;48.154;11.514;2024-03-23T15:53:59;95131.56;;;5.88;79.41
20860;BME280;10590;48.154;11.514;2024-03-23T15:59:21;95137.19;;;5.73;79.29
20860;BME280;10590;48.154;11.514;2024-03-23T16:04:44;95145.22;;;5.82;80.66
20860;BME280;10590;48.154;11.514;2024-03-23T16:10:07;95135.41;;;5.82;80.56
20860;BME280;10590;48.154;11.514;2024-03-23T16:15:29;95122.88;;;5.60;81.10
20860;BME280;10590;48.154;11.514;2024-03-23T16:20:54;95126.91;;;5.71;80.41
20860;BME280;10590;48.154;11.514;2024-03-23T16:26:15;95133.38;;;5.65;81.28
20860;BME280;10590;48.154;11.514;2024-03-23T16:31:37;95110.53;;;5.42;82.13
20860;BME280;10590;48.154;11.514;2024-03-23T16:37:00;95148.38;;;5.70;81.73
20860;BME280;10590;48.154;11.514;2024-03-23T16:42:23;95133.94;;;5.76;80.71
20860;BME280;10590;48.154;11.514;2024-03-23T16:47:44;95138.88;;;5.55;81.44
20860;BME280;10590;48.154;11.514;2024-03-23T16:53:08;95138.88;;;5.55;80.97
20860;BME280;10590;48.154;11.514;2024-03-23T16:58:30;95146.88;;;5.78;80.79
20860;BME280;10590;48.154;11.514;2024-03-23T17:03:52;95152.69;;;5.52;82.76
20860;BME280;10590;48.154;11.514;2024-03-23T17:09:15;95156.88;;;5.26;85.10
20860;BME280;10590;48.154;11.514;2024-03-23T17:14:37;95166.91;;;5.10;85.56
20860;BME280;10590;48.154;11.514;2024-03-23T17:19:59;95163.66;;;4.99;79.83
20860;BME280;10590;48.154;11.514;2024-03-23T17:25:23;95176.78;;;4.91;78.37
20860;BME280;10590;48.154;11.514;2024-03-23T17:30:45;95212.22;;;4.33;86.24
20860;BME280;10590;48.154;11.514;2024-03-23T17:36:07;95215.84;;;3.76;89.27
20860;BME280;10590;48.154;11.514;2024-03-23T17:41:30;95199.41;;;3.60;88.61
20860;BME280;10590;48.154;11.514;2024-03-23T17:46:52;95205.88;;;3.73;88.28
20860;BME280;10590;48.154;11.514;2024-03-23T17:52:14;95212.94;;;3.77;87.98
20860;BME280;10590;48.154;11.514;2024-03-23T17:57:37;95201.38;;;3.73;88.11
20860;BME280;10590;48.154;11.514;2024-03-23T18:02:58;95222.72;;;3.77;88.04
20860;BME280;10590;48.154;11.514;2024-03-23T18:08:20;95239.94;;;3.69;86.54
20860;BME280;10590;48.154;11.514;2024-03-23T18:13:43;95249.16;;;3.72;86.43
20860;BME280;10590;48.154;11.514;2024-03-23T18:19:04;95262.91;;;3.69;85.65
20860;BME280;10590;48.154;11.514;2024-03-23T18:24:26;95264.81;;;3.63;87.60
20860;BME280;10590;48.154;11.514;2024-03-23T18:29:49;95264.84;;;3.58;89.15
20860;BME280;10590;48.154;11.514;2024-03-23T18:35:12;95271.03;;;3.48;90.04
20860;BME280;10590;48.154;11.514;2024-03-23T18:40:33;95256.88;;;3.34;90.77
20860;BME280;10590;48.154;11.514;2024-03-23T18:45:57;95274.00;;;3.08;92.54
20860;BME280;10590;48.154;11.514;2024-03-23T18:51:19;95254.63;;;2.88;93.30
20860;BME280;10590;48.154;11.514;2024-03-23T18:56:41;95238.81;;;2.88;93.71
20860;BME280;10590;48.154;11.514;2024-03-23T19:02:04;95246.38;;;3.00;93.94
20860;BME280;10590;48.154;11.514;2024-03-23T19:07:26;95252.66;;;3.04;94.63
20860;BME280;10590;48.154;11.514;2024-03-23T19:12:48;95243.41;;;3.07;94.78
20860;BME280;10590;48.154;11.514;2024-03-23T19:18:11;95234.72;;;3.06;94.84
20860;BME280;10590;48.154;11.514;2024-03-23T19:23:32;95244.66;;;3.14;95.31
20860;BME280;10590;48.154;11.514;2024-03-23T19:28:54;95243.16;;;3.08;95.35
20860;BME280;10590;48.154;11.514;2024-03-23T19:34:17;95227.09;;;3.05;95.48
20860;BME280;10590;48.154;11.514;2024-03-23T19:39:39;95218.81;;;3.16;95.63
20860;BME280;10590;48.154;11.514;2024-03-23T19:45:01;95217.25;;;3.15;96.01
20860;BME280;10590;48.154;11.514;2024-03-23T19:50:24;95221.50;;;3.11;95.54
20860;BME280;10590;48.154;11.514;2024-03-23T19:55:52;95208.94;;;3.03;97.04
20860;BME280;10590;48.154;11.514;2024-03-23T20:01:15;95211.97;;;3.15;97.89
20860;BME280;10590;48.154;11.514;2024-03-23T20:06:38;95223.94;;;3.03;97.58
20860;BME280;10590;48.154;11.514;2024-03-23T20:12:00;95215.91;;;3.18;97.06
20860;BME280;10590;48.154;11.514;2024-03-23T20:17:22;95207.34;;;3.02;96.57
20860;BME280;10590;48.154;11.514;2024-03-23T20:22:46;95216.38;;;2.96;97.29
20860;BME280;10590;48.154;11.514;2024-03-23T20:28:08;95209.06;;;2.88;97.31
20860;BME280;10590;48.154;11.514;2024-03-23T20:33:30;95205.78;;;3.01;95.72
20860;BME280;10590;48.154;11.514;2024-03-23T20:38:54;95197.78;;;3.11;94.89
20860;BME280;10590;48.154;11.514;2024-03-23T20:44:16;95192.78;;;3.10;93.15
20860;BME280;10590;48.154;11.514;2024-03-23T20:49:38;95191.41;;;3.17;93.26
20860;BME280;10590;48.154;11.514;2024-03-23T20:55:01;95190.44;;;3.08;92.04
20860;BME280;10590;48.154;11.514;2024-03-23T21:00:23;95195.03;;;3.22;92.16
20860;BME280;10590;48.154;11.514;2024-03-23T21:05:45;95193.16;;;3.27;91.28
20860;BME280;10590;48.154;11.514;2024-03-23T21:11:08;95189.13;;;3.35;90.36
20860;BME280;10590;48.154;11.514;2024-03-23T21:16:29;95162.84;;;3.25;90.33
20860;BME280;10590;48.154;11.514;2024-03-23T21:21:59;95189.66;;;3.32;89.92
20860;BME280;10590;48.154;11.514;2024-03-23T21:27:25;95178.66;;;3.25;90.58
20860;BME280;10590;48.154;11.514;2024-03-23T21:32:46;95162.97;;;3.14;90.27
20860;BME280;10590;48.154;11.514;2024-03-23T21:38:08;95174.97;;;3.26;90.39
20860;BME280;10590;48.154;11.514;2024-03-23T21:43:31;95183.38;;;3.28;91.17
20860;BME280;10590;48.154;11.514;2024-03-23T21:48:53;95190.44;;;3.08;91.29
20860;BME280;10590;48.154;11.514;2024-03-23T21:54:14;95195.69;;;3.08;90.67
20860;BME280;10590;48.154;11.514;2024-03-23T21:59:39;95195.25;;;3.01;91.17
20860;BME280;10590;48.154;11.514;2024-03-23T22:05:00;95173.38;;;2.72;90.52
20860;BME280;10590;48.154;11.514;2024-03-23T22:10:22;95206.50;;;2.78;91.24
20860;BME280;10590;48.154;11.514;2024-03-23T22:15:45;95201.25;;;2.78;91.20
20860;BME280;10590;48.154;11.514;2024-03-23T22:21:07;95181.88;;;2.59;91.43
20860;BME280;10590;48.154;11.514;2024-03-23T22:26:28;95146.94;;;2.48;90.71
20860;BME280;10590;48.154;11.514;2024-03-23T22:31:51;95176.56;;;2.69;90.68
20860;BME280;10590;48.154;11.514;2024-03-23T22:37:13;95161.34;;;2.55;89.84
20860;BME280;10590;48.154;11.514;2024-03-23T22:42:34;95183.66;;;2.68;90.23
20860;BME280;10590;48.154;11.514;2024-03-23T22:47:58;95173.09;;;2.73;90.11
20860;BME280;10590;48.154;11.514;2024-03-23T22:53:19;95142.13;;;2.60;89.87
20860;BME280;10590;48.154;11.514;2024-03-23T22:58:41;95132.97;;;2.47;90.22
20860;BME280;10590;48.154;11.514;2024-03-23T23:04:04;95145.03;;;2.53;90.21
20860;BME280;10590;48.154;11.514;2024-03-23T23:09:26;95150.63;;;2.81;90.50
20860;BME280;10590;48.154;11.514;2024-03-23T23:14:48;95150.53;;;2.91;89.75
20860;BME280;10590;48.154;11.514;2024-03-23T23:20:12;95147.81;;;3.01;90.23
20860;BME280;10590;48.154;11.514;2024-03-23T23:25:34;95115.31;;;2.82;90.09
20860;BME280;10590;48.154;11.514;2024-03-23T23:30:56;95118.19;;;2.85;90.36
20860;BME280;10590;48.154;11.514;2024-03-23T23:36:19;95126.78;;;2.67;89.90
20860;BME280;10590;48.154;11.514;2024-03-23T23:41:41;95123.78;;;2.79;90.24
20860;BME280;10590;48.154;11.514;2024-03-23T23:47:03;95085.59;;;2.47;90.89
20860;BME280;10590;48.154;11.514;2024-03-23T23:52:26;95113.75;;;2.81;90.80
20860;BME280;10590;48.154;11.514;2024-03-23T23:57:48;95101.00;;;2.64;91.04
